Port Erroll, United Kingdom
Current Conditions -  °F | °C
As of 7:50 PM on Sunday 21 Dec 2014 (Local Time) from EGPD Reporting Station
Scattered Clouds Scattered Clouds  
Wind Chill: 50°   Ceiling: Unl
Heat Index: 50°   Visibility: 6mi
Dew Point: 45°   Wind: 3mph
Humidity: 82%   Direction: NA
Pressure: 29.53"   Gusts: NA
Location:  57.42°N, 1.83°W
Report Text: EGPD 211950Z VRB03KT 9999 FEW040 SCT043 10/07 Q1000 NOSIG
Loading
Personal Weather Stations






























Interactive Weather Map New forecast layout! Learn more

10-Day Weather Forecast

Advertisements
Track Severe Weather on mobile